sensor_id;sensor_type;location;lat;lon;timestamp;P1;durP1;ratioP1;P2;durP2;ratioP2
59239;SDS011;45010;53.640;10.578;2023-05-07T00:00:45;1.48;;;1.38;;
59239;SDS011;45010;53.640;10.578;2023-05-07T00:03:45;1.20;;;1.10;;
59239;SDS011;45010;53.640;10.578;2023-05-07T00:06:46;1.65;;;1.55;;
59239;SDS011;45010;53.640;10.578;2023-05-07T00:09:46;1.48;;;1.30;;
59239;SDS011;45010;53.640;10.578;2023-05-07T00:12:46;1.25;;;1.15;;
59239;SDS011;45010;53.640;10.578;2023-05-07T00:15:47;1.33;;;1.23;;
59239;SDS011;45010;53.640;10.578;2023-05-07T00:18:47;1.35;;;1.25;;
59239;SDS011;45010;53.640;10.578;2023-05-07T00:21:47;1.50;;;1.40;;
59239;SDS011;45010;53.640;10.578;2023-05-07T00:24:48;1.33;;;1.23;;
59239;SDS011;45010;53.640;10.578;2023-05-07T00:27:48;1.33;;;1.23;;
59239;SDS011;45010;53.640;10.578;2023-05-07T00:30:48;2.08;;;1.50;;
59239;SDS011;45010;53.640;10.578;2023-05-07T00:33:49;1.63;;;1.35;;
59239;SDS011;45010;53.640;10.578;2023-05-07T00:36:49;1.83;;;1.50;;
59239;SDS011;45010;53.640;10.578;2023-05-07T00:39:50;1.75;;;1.50;;
59239;SDS011;45010;53.640;10.578;2023-05-07T00:42:50;1.60;;;1.42;;
59239;SDS011;45010;53.640;10.578;2023-05-07T00:45:52;1.55;;;1.45;;
59239;SDS011;45010;53.640;10.578;2023-05-07T00:48:53;1.40;;;1.20;;
59239;SDS011;45010;53.640;10.578;2023-05-07T00:51:54;1.15;;;1.10;;
59239;SDS011;45010;53.640;10.578;2023-05-07T00:54:54;1.40;;;1.30;;
59239;SDS011;45010;53.640;10.578;2023-05-07T00:57:55;1.73;;;1.63;;
59239;SDS011;45010;53.640;10.578;2023-05-07T01:00:56;1.45;;;1.35;;
59239;SDS011;45010;53.640;10.578;2023-05-07T01:03:56;1.38;;;1.27;;
59239;SDS011;45010;53.640;10.578;2023-05-07T01:06:57;1.30;;;1.20;;
59239;SDS011;45010;53.640;10.578;2023-05-07T01:09:59;1.70;;;1.58;;
59239;SDS011;45010;53.640;10.578;2023-05-07T01:13:00;1.40;;;1.30;;
59239;SDS011;45010;53.640;10.578;2023-05-07T01:16:02;1.77;;;1.55;;
59239;SDS011;45010;53.640;10.578;2023-05-07T01:19:03;1.50;;;1.40;;
59239;SDS011;45010;53.640;10.578;2023-05-07T01:22:03;1.63;;;1.52;;
59239;SDS011;45010;53.640;10.578;2023-05-07T01:25:08;1.83;;;1.40;;
59239;SDS011;45010;53.640;10.578;2023-05-07T01:28:09;1.60;;;1.50;;
59239;SDS011;45010;53.640;10.578;2023-05-07T01:31:09;1.95;;;1.40;;
59239;SDS011;45010;53.640;10.578;2023-05-07T01:34:11;1.40;;;1.30;;
59239;SDS011;45010;53.640;10.578;2023-05-07T01:37:15;1.42;;;1.33;;
59239;SDS011;45010;53.640;10.578;2023-05-07T01:40:15;1.20;;;1.10;;
59239;SDS011;45010;53.640;10.578;2023-05-07T01:43:16;1.33;;;1.23;;
59239;SDS011;45010;53.640;10.578;2023-05-07T01:46:17;1.80;;;1.40;;
59239;SDS011;45010;53.640;10.578;2023-05-07T01:49:18;1.40;;;1.30;;
59239;SDS011;45010;53.640;10.578;2023-05-07T01:52:18;1.38;;;1.27;;
59239;SDS011;45010;53.640;10.578;2023-05-07T01:55:19;1.40;;;1.30;;
59239;SDS011;45010;53.640;10.578;2023-05-07T01:58:19;1.83;;;1.30;;
59239;SDS011;45010;53.640;10.578;2023-05-07T02:01:20;1.98;;;1.60;;
59239;SDS011;45010;53.640;10.578;2023-05-07T02:04:20;1.40;;;1.30;;
59239;SDS011;45010;53.640;10.578;2023-05-07T02:07:20;1.30;;;1.20;;
59239;SDS011;45010;53.640;10.578;2023-05-07T02:10:21;1.63;;;1.52;;
59239;SDS011;45010;53.640;10.578;2023-05-07T02:13:21;1.75;;;1.42;;
59239;SDS011;45010;53.640;10.578;2023-05-07T02:16:22;1.63;;;1.52;;
59239;SDS011;45010;53.640;10.578;2023-05-07T02:19:23;2.53;;;1.27;;
59239;SDS011;45010;53.640;10.578;2023-05-07T02:22:24;1.40;;;1.30;;
59239;SDS011;45010;53.640;10.578;2023-05-07T02:25:25;2.03;;;1.35;;
59239;SDS011;45010;53.640;10.578;2023-05-07T02:28:25;1.85;;;1.40;;
59239;SDS011;45010;53.640;10.578;2023-05-07T02:31:26;1.60;;;1.38;;
59239;SDS011;45010;53.640;10.578;2023-05-07T02:34:26;1.38;;;1.17;;
59239;SDS011;45010;53.640;10.578;2023-05-07T02:37:26;1.40;;;1.30;;
59239;SDS011;45010;53.640;10.578;2023-05-07T02:40:27;1.40;;;1.30;;
59239;SDS011;45010;53.640;10.578;2023-05-07T02:43:27;1.60;;;1.45;;
59239;SDS011;45010;53.640;10.578;2023-05-07T02:46:28;1.63;;;1.40;;
59239;SDS011;45010;53.640;10.578;2023-05-07T02:49:28;1.30;;;1.20;;
59239;SDS011;45010;53.640;10.578;2023-05-07T02:52:28;1.00;;;0.90;;
59239;SDS011;45010;53.640;10.578;2023-05-07T02:55:29;1.25;;;1.15;;
59239;SDS011;45010;53.640;10.578;2023-05-07T02:58:30;2.03;;;1.42;;
59239;SDS011;45010;53.640;10.578;2023-05-07T03:01:30;1.30;;;1.20;;
59239;SDS011;45010;53.640;10.578;2023-05-07T03:04:30;1.65;;;1.38;;
59239;SDS011;45010;53.640;10.578;2023-05-07T03:07:31;1.50;;;1.33;;
59239;SDS011;45010;53.640;10.578;2023-05-07T03:10:31;1.23;;;1.00;;
59239;SDS011;45010;53.640;10.578;2023-05-07T03:13:31;1.30;;;1.20;;
59239;SDS011;45010;53.640;10.578;2023-05-07T03:16:32;1.30;;;1.20;;
59239;SDS011;45010;53.640;10.578;2023-05-07T03:19:32;1.38;;;1.27;;
59239;SDS011;45010;53.640;10.578;2023-05-07T03:22:33;1.40;;;1.30;;
59239;SDS011;45010;53.640;10.578;2023-05-07T03:25:33;1.30;;;1.20;;
59239;SDS011;45010;53.640;10.578;2023-05-07T03:28:33;1.40;;;1.30;;
59239;SDS011;45010;53.640;10.578;2023-05-07T03:31:34;1.30;;;1.20;;
59239;SDS011;45010;53.640;10.578;2023-05-07T03:34:34;1.30;;;1.20;;
59239;SDS011;45010;53.640;10.578;2023-05-07T03:37:35;1.30;;;1.20;;
59239;SDS011;45010;53.640;10.578;2023-05-07T03:40:35;1.40;;;1.30;;
59239;SDS011;45010;53.640;10.578;2023-05-07T03:43:35;1.30;;;1.20;;
59239;SDS011;45010;53.640;10.578;2023-05-07T03:46:36;1.40;;;1.30;;
59239;SDS011;45010;53.640;10.578;2023-05-07T03:49:36;1.50;;;1.40;;
59239;SDS011;45010;53.640;10.578;2023-05-07T03:52:36;1.45;;;1.35;;
59239;SDS011;45010;53.640;10.578;2023-05-07T03:55:37;1.40;;;1.30;;
59239;SDS011;45010;53.640;10.578;2023-05-07T03:58:37;1.40;;;1.30;;
59239;SDS011;45010;53.640;10.578;2023-05-07T04:01:37;1.23;;;1.13;;
59239;SDS011;45010;53.640;10.578;2023-05-07T04:04:38;1.40;;;1.30;;
59239;SDS011;45010;53.640;10.578;2023-05-07T04:07:38;1.30;;;1.20;;
59239;SDS011;45010;53.640;10.578;2023-05-07T04:10:38;1.20;;;1.10;;
59239;SDS011;45010;53.640;10.578;2023-05-07T04:13:39;1.48;;;1.38;;
59239;SDS011;45010;53.640;10.578;2023-05-07T04:16:39;1.10;;;1.00;;
59239;SDS011;45010;53.640;10.578;2023-05-07T04:19:39;1.42;;;1.33;;
59239;SDS011;45010;53.640;10.578;2023-05-07T04:22:45;1.52;;;1.40;;
59239;SDS011;45010;53.640;10.578;2023-05-07T04:25:45;1.23;;;1.13;;
59239;SDS011;45010;53.640;10.578;2023-05-07T04:28:45;1.67;;;1.33;;
59239;SDS011;45010;53.640;10.578;2023-05-07T04:31:46;1.38;;;1.27;;
59239;SDS011;45010;53.640;10.578;2023-05-07T04:34:46;1.35;;;1.25;;
59239;SDS011;45010;53.640;10.578;2023-05-07T04:37:46;1.40;;;1.30;;
59239;SDS011;45010;53.640;10.578;2023-05-07T04:40:47;1.10;;;1.00;;
59239;SDS011;45010;53.640;10.578;2023-05-07T04:43:47;1.33;;;1.23;;
59239;SDS011;45010;53.640;10.578;2023-05-07T04:46:47;1.73;;;0.95;;
59239;SDS011;45010;53.640;10.578;2023-05-07T04:49:48;1.10;;;1.00;;
59239;SDS011;45010;53.640;10.578;2023-05-07T04:52:48;1.23;;;1.00;;
59239;SDS011;45010;53.640;10.578;2023-05-07T04:55:48;1.40;;;1.30;;
59239;SDS011;45010;53.640;10.578;2023-05-07T04:58:49;1.23;;;0.95;;
59239;SDS011;45010;53.640;10.578;2023-05-07T05:01:49;1.30;;;1.20;;
59239;SDS011;45010;53.640;10.578;2023-05-07T05:04:49;1.48;;;1.38;;
59239;SDS011;45010;53.640;10.578;2023-05-07T05:07:50;1.30;;;1.20;;
59239;SDS011;45010;53.640;10.578;2023-05-07T05:10:51;1.63;;;1.00;;
59239;SDS011;45010;53.640;10.578;2023-05-07T05:13:51;1.20;;;1.10;;
59239;SDS011;45010;53.640;10.578;2023-05-07T05:16:52;1.40;;;1.30;;
59239;SDS011;45010;53.640;10.578;2023-05-07T05:19:52;1.20;;;1.10;;
59239;SDS011;45010;53.640;10.578;2023-05-07T05:22:52;2.78;;;1.48;;
59239;SDS011;45010;53.640;10.578;2023-05-07T05:25:56;1.17;;;1.08;;
59239;SDS011;45010;53.640;10.578;2023-05-07T05:28:57;2.45;;;1.05;;
59239;SDS011;45010;53.640;10.578;2023-05-07T05:31:57;1.20;;;1.10;;
59239;SDS011;45010;53.640;10.578;2023-05-07T05:34:58;1.80;;;1.10;;
59239;SDS011;45010;53.640;10.578;2023-05-07T05:37:58;1.65;;;1.35;;
59239;SDS011;45010;53.640;10.578;2023-05-07T05:40:59;2.08;;;1.00;;
59239;SDS011;45010;53.640;10.578;2023-05-07T05:43:59;1.30;;;1.08;;
59239;SDS011;45010;53.640;10.578;2023-05-07T05:47:00;1.20;;;1.10;;
59239;SDS011;45010;53.640;10.578;2023-05-07T05:50:00;3.20;;;1.40;;
59239;SDS011;45010;53.640;10.578;2023-05-07T05:53:00;1.92;;;1.30;;
59239;SDS011;45010;53.640;10.578;2023-05-07T05:56:01;1.58;;;1.00;;
59239;SDS011;45010;53.640;10.578;2023-05-07T05:59:01;1.67;;;1.20;;
59239;SDS011;45010;53.640;10.578;2023-05-07T06:02:02;1.30;;;1.20;;
59239;SDS011;45010;53.640;10.578;2023-05-07T06:05:03;1.83;;;1.20;;
59239;SDS011;45010;53.640;10.578;2023-05-07T06:08:03;1.40;;;1.05;;
59239;SDS011;45010;53.640;10.578;2023-05-07T06:11:04;1.50;;;1.13;;
59239;SDS011;45010;53.640;10.578;2023-05-07T06:14:04;1.60;;;0.95;;
59239;SDS011;45010;53.640;10.578;2023-05-07T06:17:05;1.40;;;1.00;;
59239;SDS011;45010;53.640;10.578;2023-05-07T06:20:05;1.15;;;1.08;;
59239;SDS011;45010;53.640;10.578;2023-05-07T06:23:06;1.42;;;1.33;;
59239;SDS011;45010;53.640;10.578;2023-05-07T06:26:07;2.83;;;1.20;;
59239;SDS011;45010;53.640;10.578;2023-05-07T06:29:08;1.23;;;1.02;;
59239;SDS011;45010;53.640;10.578;2023-05-07T06:32:08;1.92;;;1.17;;
59239;SDS011;45010;53.640;10.578;2023-05-07T06:35:09;2.17;;;1.45;;
59239;SDS011;45010;53.640;10.578;2023-05-07T06:38:10;2.50;;;1.23;;
59239;SDS011;45010;53.640;10.578;2023-05-07T06:41:12;2.30;;;1.50;;
59239;SDS011;45010;53.640;10.578;2023-05-07T06:44:12;2.08;;;1.58;;
59239;SDS011;45010;53.640;10.578;2023-05-07T06:47:12;4.93;;;1.70;;
59239;SDS011;45010;53.640;10.578;2023-05-07T06:50:13;2.15;;;1.50;;
59239;SDS011;45010;53.640;10.578;2023-05-07T06:53:13;3.28;;;1.48;;
59239;SDS011;45010;53.640;10.578;2023-05-07T06:56:13;5.20;;;1.88;;
59239;SDS011;45010;53.640;10.578;2023-05-07T06:59:14;4.15;;;1.45;;
59239;SDS011;45010;53.640;10.578;2023-05-07T07:02:16;3.60;;;1.60;;
59239;SDS011;45010;53.640;10.578;2023-05-07T07:05:16;1.70;;;1.52;;
59239;SDS011;45010;53.640;10.578;2023-05-07T07:08:16;4.68;;;1.75;;
59239;SDS011;45010;53.640;10.578;2023-05-07T07:11:17;5.90;;;2.05;;
59239;SDS011;45010;53.640;10.578;2023-05-07T07:14:18;3.28;;;1.95;;
59239;SDS011;45010;53.640;10.578;2023-05-07T07:17:18;4.00;;;1.90;;
59239;SDS011;45010;53.640;10.578;2023-05-07T07:20:19;7.03;;;2.72;;
59239;SDS011;45010;53.640;10.578;2023-05-07T07:23:19;8.20;;;2.63;;
59239;SDS011;45010;53.640;10.578;2023-05-07T07:26:19;6.75;;;2.53;;
59239;SDS011;45010;53.640;10.578;2023-05-07T07:29:20;4.78;;;2.67;;
59239;SDS011;45010;53.640;10.578;2023-05-07T07:32:20;5.47;;;2.67;;
59239;SDS011;45010;53.640;10.578;2023-05-07T07:35:21;5.10;;;2.13;;
59239;SDS011;45010;53.640;10.578;2023-05-07T07:38:21;5.85;;;2.90;;
59239;SDS011;45010;53.640;10.578;2023-05-07T07:41:21;5.05;;;2.40;;
59239;SDS011;45010;53.640;10.578;2023-05-07T07:44:22;2.55;;;2.08;;
59239;SDS011;45010;53.640;10.578;2023-05-07T07:47:22;6.70;;;2.55;;
59239;SDS011;45010;53.640;10.578;2023-05-07T07:50:22;5.25;;;2.70;;
59239;SDS011;45010;53.640;10.578;2023-05-07T07:53:23;3.38;;;2.25;;
59239;SDS011;45010;53.640;10.578;2023-05-07T07:56:23;4.43;;;2.78;;
59239;SDS011;45010;53.640;10.578;2023-05-07T07:59:24;5.35;;;2.60;;
59239;SDS011;45010;53.640;10.578;2023-05-07T08:02:24;5.18;;;2.05;;
59239;SDS011;45010;53.640;10.578;2023-05-07T08:05:25;5.00;;;2.47;;
59239;SDS011;45010;53.640;10.578;2023-05-07T08:08:25;5.32;;;2.10;;
59239;SDS011;45010;53.640;10.578;2023-05-07T08:11:26;3.05;;;2.38;;
59239;SDS011;45010;53.640;10.578;2023-05-07T08:14:27;5.47;;;2.10;;
59239;SDS011;45010;53.640;10.578;2023-05-07T08:17:28;3.50;;;2.13;;
59239;SDS011;45010;53.640;10.578;2023-05-07T08:20:28;4.32;;;2.10;;
59239;SDS011;45010;53.640;10.578;2023-05-07T08:23:29;6.82;;;2.25;;
59239;SDS011;45010;53.640;10.578;2023-05-07T08:26:29;6.05;;;2.35;;
59239;SDS011;45010;53.640;10.578;2023-05-07T08:29:29;10.63;;;2.25;;
59239;SDS011;45010;53.640;10.578;2023-05-07T08:32:30;5.93;;;2.00;;
59239;SDS011;45010;53.640;10.578;2023-05-07T08:35:30;12.05;;;2.20;;
59239;SDS011;45010;53.640;10.578;2023-05-07T08:38:31;12.95;;;2.28;;
59239;SDS011;45010;53.640;10.578;2023-05-07T08:41:31;3.67;;;2.53;;
59239;SDS011;45010;53.640;10.578;2023-05-07T08:44:34;4.80;;;2.13;;
59239;SDS011;45010;53.640;10.578;2023-05-07T08:47:39;4.60;;;2.00;;
59239;SDS011;45010;53.640;10.578;2023-05-07T08:50:43;6.10;;;2.30;;
59239;SDS011;45010;53.640;10.578;2023-05-07T08:53:43;3.67;;;2.15;;
59239;SDS011;45010;53.640;10.578;2023-05-07T08:56:44;5.72;;;2.00;;
59239;SDS011;45010;53.640;10.578;2023-05-07T08:59:45;4.15;;;2.00;;
59239;SDS011;45010;53.640;10.578;2023-05-07T09:02:45;3.25;;;1.77;;
59239;SDS011;45010;53.640;10.578;2023-05-07T09:05:46;4.47;;;2.20;;
59239;SDS011;45010;53.640;10.578;2023-05-07T09:08:50;3.70;;;2.30;;
59239;SDS011;45010;53.640;10.578;2023-05-07T09:11:56;4.70;;;1.83;;
59239;SDS011;45010;53.640;10.578;2023-05-07T09:14:59;5.72;;;1.85;;
59239;SDS011;45010;53.640;10.578;2023-05-07T09:18:00;3.10;;;2.20;;
59239;SDS011;45010;53.640;10.578;2023-05-07T09:21:03;3.85;;;1.90;;
59239;SDS011;45010;53.640;10.578;2023-05-07T09:24:04;7.38;;;2.25;;
59239;SDS011;45010;53.640;10.578;2023-05-07T09:27:05;5.70;;;2.40;;
59239;SDS011;45010;53.640;10.578;2023-05-07T09:30:06;6.88;;;2.80;;
59239;SDS011;45010;53.640;10.578;2023-05-07T09:33:07;8.60;;;2.40;;
59239;SDS011;45010;53.640;10.578;2023-05-07T09:36:07;4.93;;;2.38;;
59239;SDS011;45010;53.640;10.578;2023-05-07T09:39:09;5.43;;;2.88;;
59239;SDS011;45010;53.640;10.578;2023-05-07T09:42:09;6.72;;;2.50;;
59239;SDS011;45010;53.640;10.578;2023-05-07T09:45:11;8.38;;;2.63;;
59239;SDS011;45010;53.640;10.578;2023-05-07T09:48:11;6.45;;;2.63;;
59239;SDS011;45010;53.640;10.578;2023-05-07T09:54:31;8.27;;;2.95;;
59239;SDS011;45010;53.640;10.578;2023-05-07T09:57:33;4.65;;;2.58;;
59239;SDS011;45010;53.640;10.578;2023-05-07T10:00:34;7.63;;;2.72;;
59239;SDS011;45010;53.640;10.578;2023-05-07T10:03:35;5.25;;;2.30;;
59239;SDS011;45010;53.640;10.578;2023-05-07T10:06:37;4.57;;;2.35;;
59239;SDS011;45010;53.640;10.578;2023-05-07T10:09:38;3.15;;;2.30;;
59239;SDS011;45010;53.640;10.578;2023-05-07T10:12:40;6.80;;;2.80;;
59239;SDS011;45010;53.640;10.578;2023-05-07T10:15:40;6.28;;;2.40;;
59239;SDS011;45010;53.640;10.578;2023-05-07T10:18:41;3.28;;;2.40;;
59239;SDS011;45010;53.640;10.578;2023-05-07T10:21:44;5.38;;;2.17;;
59239;SDS011;45010;53.640;10.578;2023-05-07T10:24:51;3.67;;;2.10;;
59239;SDS011;45010;53.640;10.578;2023-05-07T10:27:55;3.40;;;2.20;;
59239;SDS011;45010;53.640;10.578;2023-05-07T10:34:09;3.90;;;2.40;;
59239;SDS011;45010;53.640;10.578;2023-05-07T10:37:13;3.35;;;2.00;;
59239;SDS011;45010;53.640;10.578;2023-05-07T10:40:14;3.90;;;2.03;;
59239;SDS011;45010;53.640;10.578;2023-05-07T10:43:14;3.25;;;2.28;;
59239;SDS011;45010;53.640;10.578;2023-05-07T10:46:15;4.97;;;2.33;;
59239;SDS011;45010;53.640;10.578;2023-05-07T10:49:16;3.67;;;2.00;;
59239;SDS011;45010;53.640;10.578;2023-05-07T10:52:17;4.25;;;2.03;;
59239;SDS011;45010;53.640;10.578;2023-05-07T10:55:19;3.10;;;1.83;;
59239;SDS011;45010;53.640;10.578;2023-05-07T10:58:25;4.45;;;2.30;;
59239;SDS011;45010;53.640;10.578;2023-05-07T11:08:20;3.25;;;2.05;;
59239;SDS011;45010;53.640;10.578;2023-05-07T11:14:58;2.70;;;1.90;;
59239;SDS011;45010;53.640;10.578;2023-05-07T11:17:59;7.40;;;1.92;;
59239;SDS011;45010;53.640;10.578;2023-05-07T11:21:00;4.03;;;2.15;;
59239;SDS011;45010;53.640;10.578;2023-05-07T11:24:00;3.22;;;1.80;;
59239;SDS011;45010;53.640;10.578;2023-05-07T11:27:02;4.30;;;2.10;;
59239;SDS011;45010;53.640;10.578;2023-05-07T11:30:03;3.15;;;1.85;;
59239;SDS011;45010;53.640;10.578;2023-05-07T11:33:03;3.78;;;1.58;;
59239;SDS011;45010;53.640;10.578;2023-05-07T11:36:05;2.05;;;1.70;;
59239;SDS011;45010;53.640;10.578;2023-05-07T11:39:22;2.92;;;2.08;;
59239;SDS011;45010;53.640;10.578;2023-05-07T11:42:30;2.42;;;2.00;;
59239;SDS011;45010;53.640;10.578;2023-05-07T11:45:34;2.58;;;1.50;;
59239;SDS011;45010;53.640;10.578;2023-05-07T11:48:35;2.03;;;1.83;;
59239;SDS011;45010;53.640;10.578;2023-05-07T11:51:35;2.33;;;1.80;;
59239;SDS011;45010;53.640;10.578;2023-05-07T11:54:39;3.13;;;1.80;;
59239;SDS011;45010;53.640;10.578;2023-05-07T11:57:39;1.80;;;1.50;;
59239;SDS011;45010;53.640;10.578;2023-05-07T12:00:47;2.40;;;1.50;;
59239;SDS011;45010;53.640;10.578;2023-05-07T12:03:51;2.58;;;1.60;;
59239;SDS011;45010;53.640;10.578;2023-05-07T12:06:54;1.90;;;1.58;;
59239;SDS011;45010;53.640;10.578;2023-05-07T12:09:55;2.58;;;1.70;;
59239;SDS011;45010;53.640;10.578;2023-05-07T12:12:56;4.63;;;1.90;;
59239;SDS011;45010;53.640;10.578;2023-05-07T12:15:56;1.65;;;1.45;;
59239;SDS011;45010;53.640;10.578;2023-05-07T12:18:57;2.55;;;1.50;;
59239;SDS011;45010;53.640;10.578;2023-05-07T12:21:58;2.53;;;1.60;;
59239;SDS011;45010;53.640;10.578;2023-05-07T12:24:59;1.70;;;1.60;;
59239;SDS011;45010;53.640;10.578;2023-05-07T12:28:00;2.72;;;1.88;;
59239;SDS011;45010;53.640;10.578;2023-05-07T12:31:01;1.77;;;1.50;;
59239;SDS011;45010;53.640;10.578;2023-05-07T12:34:02;2.55;;;1.55;;
59239;SDS011;45010;53.640;10.578;2023-05-07T12:37:02;3.05;;;1.55;;
59239;SDS011;45010;53.640;10.578;2023-05-07T12:40:04;1.58;;;1.30;;
59239;SDS011;45010;53.640;10.578;2023-05-07T12:43:15;1.65;;;1.38;;
59239;SDS011;45010;53.640;10.578;2023-05-07T12:46:25;1.92;;;1.40;;
59239;SDS011;45010;53.640;10.578;2023-05-07T12:49:26;1.67;;;1.42;;
59239;SDS011;45010;53.640;10.578;2023-05-07T12:52:26;1.40;;;1.30;;
59239;SDS011;45010;53.640;10.578;2023-05-07T12:55:26;1.90;;;1.40;;
59239;SDS011;45010;53.640;10.578;2023-05-07T12:58:35;1.90;;;1.55;;
59239;SDS011;45010;53.640;10.578;2023-05-07T13:01:36;1.48;;;1.38;;
59239;SDS011;45010;53.640;10.578;2023-05-07T13:04:36;1.90;;;1.30;;
59239;SDS011;45010;53.640;10.578;2023-05-07T13:07:36;1.27;;;1.08;;
59239;SDS011;45010;53.640;10.578;2023-05-07T13:10:37;1.63;;;1.40;;
59239;SDS011;45010;53.640;10.578;2023-05-07T13:13:38;1.38;;;1.27;;
59239;SDS011;45010;53.640;10.578;2023-05-07T13:16:40;2.25;;;1.17;;
59239;SDS011;45010;53.640;10.578;2023-05-07T13:19:40;1.88;;;1.30;;
59239;SDS011;45010;53.640;10.578;2023-05-07T13:22:40;1.95;;;1.80;;
59239;SDS011;45010;53.640;10.578;2023-05-07T13:25:41;1.25;;;1.13;;
59239;SDS011;45010;53.640;10.578;2023-05-07T13:28:41;2.35;;;1.33;;
59239;SDS011;45010;53.640;10.578;2023-05-07T13:31:41;1.38;;;1.20;;
59239;SDS011;45010;53.640;10.578;2023-05-07T13:34:43;2.55;;;1.55;;
59239;SDS011;45010;53.640;10.578;2023-05-07T13:37:44;2.05;;;1.33;;
59239;SDS011;45010;53.640;10.578;2023-05-07T13:40:44;1.90;;;1.17;;
59239;SDS011;45010;53.640;10.578;2023-05-07T13:43:45;1.75;;;1.30;;
59239;SDS011;45010;53.640;10.578;2023-05-07T13:46:45;1.95;;;1.10;;
59239;SDS011;45010;53.640;10.578;2023-05-07T13:49:45;1.67;;;1.25;;
59239;SDS011;45010;53.640;10.578;2023-05-07T13:52:46;1.42;;;1.33;;
59239;SDS011;45010;53.640;10.578;2023-05-07T13:55:50;1.58;;;1.48;;
59239;SDS011;45010;53.640;10.578;2023-05-07T13:58:50;1.45;;;1.10;;
59239;SDS011;45010;53.640;10.578;2023-05-07T14:01:51;1.35;;;1.25;;
59239;SDS011;45010;53.640;10.578;2023-05-07T14:04:51;1.17;;;1.08;;
59239;SDS011;45010;53.640;10.578;2023-05-07T14:07:52;1.95;;;1.08;;
59239;SDS011;45010;53.640;10.578;2023-05-07T14:10:54;2.50;;;1.23;;
59239;SDS011;45010;53.640;10.578;2023-05-07T14:13:54;1.58;;;1.17;;
59239;SDS011;45010;53.640;10.578;2023-05-07T14:16:56;1.20;;;1.10;;
59239;SDS011;45010;53.640;10.578;2023-05-07T14:19:57;1.23;;;1.10;;
59239;SDS011;45010;53.640;10.578;2023-05-07T14:22:57;1.40;;;1.23;;
59239;SDS011;45010;53.640;10.578;2023-05-07T14:25:57;1.20;;;1.10;;
59239;SDS011;45010;53.640;10.578;2023-05-07T14:28:58;1.17;;;1.08;;
59239;SDS011;45010;53.640;10.578;2023-05-07T14:31:58;1.38;;;1.27;;
59239;SDS011;45010;53.640;10.578;2023-05-07T14:34:58;0.98;;;0.98;;
59239;SDS011;45010;53.640;10.578;2023-05-07T14:37:59;1.83;;;1.15;;
59239;SDS011;45010;53.640;10.578;2023-05-07T14:40:59;1.33;;;1.17;;
59239;SDS011;45010;53.640;10.578;2023-05-07T14:44:00;1.58;;;1.02;;
59239;SDS011;45010;53.640;10.578;2023-05-07T14:47:00;1.35;;;1.25;;
59239;SDS011;45010;53.640;10.578;2023-05-07T14:50:01;1.20;;;1.10;;
59239;SDS011;45010;53.640;10.578;2023-05-07T14:53:01;1.05;;;1.05;;
59239;SDS011;45010;53.640;10.578;2023-05-07T14:56:01;1.23;;;1.13;;
59239;SDS011;45010;53.640;10.578;2023-05-07T14:59:02;1.33;;;1.20;;
59239;SDS011;45010;53.640;10.578;2023-05-07T15:02:03;1.10;;;1.00;;
59239;SDS011;45010;53.640;10.578;2023-05-07T15:05:05;1.58;;;1.30;;
59239;SDS011;45010;53.640;10.578;2023-05-07T15:08:05;1.08;;;0.98;;
59239;SDS011;45010;53.640;10.578;2023-05-07T15:11:06;1.25;;;1.15;;
59239;SDS011;45010;53.640;10.578;2023-05-07T15:14:06;1.10;;;1.00;;
59239;SDS011;45010;53.640;10.578;2023-05-07T15:17:06;2.08;;;1.10;;
59239;SDS011;45010;53.640;10.578;2023-05-07T15:20:07;1.00;;;0.90;;
59239;SDS011;45010;53.640;10.578;2023-05-07T15:23:08;1.02;;;0.93;;
59239;SDS011;45010;53.640;10.578;2023-05-07T15:26:15;1.17;;;1.08;;
59239;SDS011;45010;53.640;10.578;2023-05-07T15:29:15;1.45;;;1.00;;
59239;SDS011;45010;53.640;10.578;2023-05-07T15:32:15;1.13;;;0.85;;
59239;SDS011;45010;53.640;10.578;2023-05-07T15:35:16;0.85;;;0.80;;
59239;SDS011;45010;53.640;10.578;2023-05-07T15:38:17;0.98;;;0.93;;
59239;SDS011;45010;53.640;10.578;2023-05-07T15:41:17;1.02;;;0.93;;
59239;SDS011;45010;53.640;10.578;2023-05-07T15:44:17;1.25;;;1.15;;
59239;SDS011;45010;53.640;10.578;2023-05-07T15:47:18;1.15;;;0.90;;
59239;SDS011;45010;53.640;10.578;2023-05-07T15:50:18;1.00;;;0.88;;
59239;SDS011;45010;53.640;10.578;2023-05-07T15:53:18;1.63;;;0.98;;
59239;SDS011;45010;53.640;10.578;2023-05-07T15:56:19;1.10;;;0.90;;
59239;SDS011;45010;53.640;10.578;2023-05-07T15:59:20;1.33;;;0.80;;
59239;SDS011;45010;53.640;10.578;2023-05-07T16:02:20;1.10;;;1.00;;
59239;SDS011;45010;53.640;10.578;2023-05-07T16:05:21;1.50;;;1.35;;
59239;SDS011;45010;53.640;10.578;2023-05-07T16:08:21;1.20;;;1.10;;
59239;SDS011;45010;53.640;10.578;2023-05-07T16:11:21;1.13;;;0.77;;
59239;SDS011;45010;53.640;10.578;2023-05-07T16:14:22;1.90;;;0.90;;
59239;SDS011;45010;53.640;10.578;2023-05-07T16:17:23;1.25;;;1.15;;
59239;SDS011;45010;53.640;10.578;2023-05-07T16:20:27;1.00;;;0.90;;
59239;SDS011;45010;53.640;10.578;2023-05-07T16:23:29;2.00;;;1.00;;
59239;SDS011;45010;53.640;10.578;2023-05-07T16:26:30;1.30;;;0.98;;
59239;SDS011;45010;53.640;10.578;2023-05-07T16:29:30;1.40;;;0.90;;
59239;SDS011;45010;53.640;10.578;2023-05-07T16:32:31;1.10;;;1.00;;
59239;SDS011;45010;53.640;10.578;2023-05-07T16:35:31;1.35;;;1.05;;
59239;SDS011;45010;53.640;10.578;2023-05-07T16:38:31;0.70;;;0.70;;
59239;SDS011;45010;53.640;10.578;2023-05-07T16:41:33;0.80;;;0.80;;
59239;SDS011;45010;53.640;10.578;2023-05-07T16:44:33;1.10;;;1.00;;
59239;SDS011;45010;53.640;10.578;2023-05-07T16:47:33;0.98;;;0.98;;
59239;SDS011;45010;53.640;10.578;2023-05-07T16:50:34;1.38;;;0.90;;
59239;SDS011;45010;53.640;10.578;2023-05-07T16:53:34;1.17;;;0.93;;
59239;SDS011;45010;53.640;10.578;2023-05-07T16:56:35;0.88;;;0.88;;
59239;SDS011;45010;53.640;10.578;2023-05-07T16:59:35;0.95;;;0.95;;
59239;SDS011;45010;53.640;10.578;2023-05-07T17:02:35;0.93;;;0.80;;
59239;SDS011;45010;53.640;10.578;2023-05-07T17:05:36;1.10;;;0.88;;
59239;SDS011;45010;53.640;10.578;2023-05-07T17:08:37;1.35;;;1.00;;
59239;SDS011;45010;53.640;10.578;2023-05-07T17:11:38;1.40;;;1.00;;
59239;SDS011;45010;53.640;10.578;2023-05-07T17:14:38;0.70;;;0.70;;
59239;SDS011;45010;53.640;10.578;2023-05-07T17:17:38;0.82;;;0.75;;
59239;SDS011;45010;53.640;10.578;2023-05-07T17:20:39;0.80;;;0.80;;
59239;SDS011;45010;53.640;10.578;2023-05-07T17:23:40;0.90;;;0.80;;
59239;SDS011;45010;53.640;10.578;2023-05-07T17:26:40;1.65;;;0.85;;
59239;SDS011;45010;53.640;10.578;2023-05-07T17:29:41;1.45;;;1.00;;
59239;SDS011;45010;53.640;10.578;2023-05-07T17:32:42;1.73;;;0.85;;
59239;SDS011;45010;53.640;10.578;2023-05-07T17:35:42;0.80;;;0.80;;
59239;SDS011;45010;53.640;10.578;2023-05-07T17:38:43;1.15;;;1.05;;
59239;SDS011;45010;53.640;10.578;2023-05-07T17:41:43;1.13;;;1.08;;
59239;SDS011;45010;53.640;10.578;2023-05-07T17:44:43;0.68;;;0.68;;
59239;SDS011;45010;53.640;10.578;2023-05-07T17:47:44;1.05;;;0.85;;
59239;SDS011;45010;53.640;10.578;2023-05-07T17:50:44;0.95;;;0.90;;
59239;SDS011;45010;53.640;10.578;2023-05-07T17:53:44;0.95;;;0.70;;
59239;SDS011;45010;53.640;10.578;2023-05-07T17:56:45;1.10;;;1.00;;
59239;SDS011;45010;53.640;10.578;2023-05-07T17:59:45;1.25;;;0.80;;
59239;SDS011;45010;53.640;10.578;2023-05-07T18:02:45;0.90;;;0.90;;
59239;SDS011;45010;53.640;10.578;2023-05-07T18:05:45;0.75;;;0.75;;
59239;SDS011;45010;53.640;10.578;2023-05-07T18:08:46;0.82;;;0.82;;